sensor_id;sensor_type;location;lat;lon;timestamp;P1;durP1;ratioP1;P2;durP2;ratioP2
75454;SDS011;64035;48.358;2.122;2023-02-12T00:00:36;10.88;;;3.60;;
75454;SDS011;64035;48.358;2.122;2023-02-12T00:01:40;11.15;;;4.32;;
75454;SDS011;64035;48.358;2.122;2023-02-12T00:02:43;9.68;;;4.07;;
75454;SDS011;64035;48.358;2.122;2023-02-12T00:03:46;10.45;;;3.55;;
75454;SDS011;64035;48.358;2.122;2023-02-12T00:04:50;9.50;;;3.78;;
75454;SDS011;64035;48.358;2.122;2023-02-12T00:05:52;9.25;;;3.72;;
75454;SDS011;64035;48.358;2.122;2023-02-12T00:06:55;9.85;;;3.38;;
75454;SDS011;64035;48.358;2.122;2023-02-12T00:07:58;9.65;;;3.25;;
75454;SDS011;64035;48.358;2.122;2023-02-12T00:09:01;10.57;;;3.45;;
75454;SDS011;64035;48.358;2.122;2023-02-12T00:10:05;8.23;;;3.15;;
75454;SDS011;64035;48.358;2.122;2023-02-12T00:11:10;9.98;;;3.45;;
75454;SDS011;64035;48.358;2.122;2023-02-12T00:12:15;9.38;;;2.97;;
75454;SDS011;64035;48.358;2.122;2023-02-12T00:14:21;7.10;;;2.50;;
75454;SDS011;64035;48.358;2.122;2023-02-12T00:15:24;8.10;;;2.75;;
75454;SDS011;64035;48.358;2.122;2023-02-12T00:16:27;8.90;;;2.50;;
75454;SDS011;64035;48.358;2.122;2023-02-12T00:17:30;9.23;;;2.60;;
75454;SDS011;64035;48.358;2.122;2023-02-12T00:18:33;8.07;;;2.67;;
75454;SDS011;64035;48.358;2.122;2023-02-12T00:19:37;9.10;;;2.70;;
75454;SDS011;64035;48.358;2.122;2023-02-12T00:20:40;9.10;;;2.47;;
75454;SDS011;64035;48.358;2.122;2023-02-12T00:21:43;6.70;;;2.30;;
75454;SDS011;64035;48.358;2.122;2023-02-12T00:22:47;8.52;;;2.58;;
75454;SDS011;64035;48.358;2.122;2023-02-12T00:23:50;7.80;;;2.50;;
75454;SDS011;64035;48.358;2.122;2023-02-12T00:24:53;7.88;;;2.53;;
75454;SDS011;64035;48.358;2.122;2023-02-12T00:25:56;8.07;;;2.67;;
75454;SDS011;64035;48.358;2.122;2023-02-12T00:26:59;6.28;;;2.13;;
75454;SDS011;64035;48.358;2.122;2023-02-12T00:28:02;7.32;;;2.40;;
75454;SDS011;64035;48.358;2.122;2023-02-12T00:29:05;8.30;;;2.47;;
75454;SDS011;64035;48.358;2.122;2023-02-12T00:30:08;7.63;;;2.70;;
75454;SDS011;64035;48.358;2.122;2023-02-12T00:31:12;6.22;;;2.40;;
75454;SDS011;64035;48.358;2.122;2023-02-12T00:32:16;8.48;;;2.55;;
75454;SDS011;64035;48.358;2.122;2023-02-12T00:33:22;6.90;;;2.28;;
75454;SDS011;64035;48.358;2.122;2023-02-12T00:34:24;7.28;;;2.53;;
75454;SDS011;64035;48.358;2.122;2023-02-12T00:35:27;6.93;;;2.17;;
75454;SDS011;64035;48.358;2.122;2023-02-12T00:36:31;7.68;;;2.67;;
75454;SDS011;64035;48.358;2.122;2023-02-12T00:37:35;8.82;;;2.78;;
75454;SDS011;64035;48.358;2.122;2023-02-12T00:38:38;7.55;;;2.50;;
75454;SDS011;64035;48.358;2.122;2023-02-12T00:39:41;7.28;;;2.45;;
75454;SDS011;64035;48.358;2.122;2023-02-12T00:40:44;6.40;;;2.05;;
75454;SDS011;64035;48.358;2.122;2023-02-12T00:41:47;6.57;;;2.10;;
75454;SDS011;64035;48.358;2.122;2023-02-12T00:42:50;5.78;;;2.00;;
75454;SDS011;64035;48.358;2.122;2023-02-12T00:43:53;6.10;;;2.22;;
75454;SDS011;64035;48.358;2.122;2023-02-12T00:44:57;6.60;;;2.38;;
75454;SDS011;64035;48.358;2.122;2023-02-12T00:46:00;6.60;;;2.13;;
75454;SDS011;64035;48.358;2.122;2023-02-12T00:47:03;6.00;;;1.95;;
75454;SDS011;64035;48.358;2.122;2023-02-12T00:48:06;5.65;;;1.70;;
75454;SDS011;64035;48.358;2.122;2023-02-12T00:49:10;7.53;;;1.83;;
75454;SDS011;64035;48.358;2.122;2023-02-12T00:50:13;6.53;;;2.20;;
75454;SDS011;64035;48.358;2.122;2023-02-12T00:51:17;8.43;;;2.35;;
75454;SDS011;64035;48.358;2.122;2023-02-12T00:52:20;5.82;;;1.98;;
75454;SDS011;64035;48.358;2.122;2023-02-12T00:53:23;5.63;;;2.03;;
75454;SDS011;64035;48.358;2.122;2023-02-12T00:54:26;7.38;;;2.30;;
75454;SDS011;64035;48.358;2.122;2023-02-12T00:55:31;7.00;;;2.50;;
75454;SDS011;64035;48.358;2.122;2023-02-12T00:56:35;6.55;;;2.05;;
75454;SDS011;64035;48.358;2.122;2023-02-12T00:57:38;7.03;;;2.35;;
75454;SDS011;64035;48.358;2.122;2023-02-12T00:58:41;7.10;;;2.47;;
75454;SDS011;64035;48.358;2.122;2023-02-12T00:59:44;7.65;;;2.20;;
75454;SDS011;64035;48.358;2.122;2023-02-12T01:00:47;5.85;;;1.83;;
75454;SDS011;64035;48.358;2.122;2023-02-12T01:01:51;8.07;;;2.28;;
75454;SDS011;64035;48.358;2.122;2023-02-12T01:02:56;6.22;;;2.15;;
75454;SDS011;64035;48.358;2.122;2023-02-12T01:03:59;6.50;;;2.35;;
75454;SDS011;64035;48.358;2.122;2023-02-12T01:05:03;7.10;;;2.40;;
75454;SDS011;64035;48.358;2.122;2023-02-12T01:06:06;7.53;;;2.75;;
75454;SDS011;64035;48.358;2.122;2023-02-12T01:07:09;7.13;;;2.60;;
75454;SDS011;64035;48.358;2.122;2023-02-12T01:08:13;8.07;;;2.60;;
75454;SDS011;64035;48.358;2.122;2023-02-12T01:09:17;7.93;;;3.00;;
75454;SDS011;64035;48.358;2.122;2023-02-12T01:10:20;7.00;;;2.40;;
75454;SDS011;64035;48.358;2.122;2023-02-12T01:11:24;7.00;;;2.45;;
75454;SDS011;64035;48.358;2.122;2023-02-12T01:13:31;7.60;;;2.53;;
75454;SDS011;64035;48.358;2.122;2023-02-12T01:14:37;9.70;;;3.20;;
75454;SDS011;64035;48.358;2.122;2023-02-12T01:15:40;9.35;;;3.28;;
75454;SDS011;64035;48.358;2.122;2023-02-12T01:16:43;10.18;;;3.55;;
75454;SDS011;64035;48.358;2.122;2023-02-12T01:17:49;10.02;;;3.70;;
75454;SDS011;64035;48.358;2.122;2023-02-12T01:18:54;12.23;;;4.40;;
75454;SDS011;64035;48.358;2.122;2023-02-12T01:19:57;10.45;;;3.55;;
75454;SDS011;64035;48.358;2.122;2023-02-12T01:21:01;10.75;;;3.92;;
75454;SDS011;64035;48.358;2.122;2023-02-12T01:22:04;10.57;;;3.88;;
75454;SDS011;64035;48.358;2.122;2023-02-12T01:23:08;10.18;;;3.75;;
75454;SDS011;64035;48.358;2.122;2023-02-12T01:24:11;10.45;;;4.15;;
75454;SDS011;64035;48.358;2.122;2023-02-12T01:25:14;12.50;;;4.40;;
75454;SDS011;64035;48.358;2.122;2023-02-12T01:26:18;12.23;;;3.75;;
75454;SDS011;64035;48.358;2.122;2023-02-12T01:27:22;11.10;;;4.43;;
75454;SDS011;64035;48.358;2.122;2023-02-12T01:28:25;11.10;;;4.50;;
75454;SDS011;64035;48.358;2.122;2023-02-12T01:29:28;9.70;;;3.88;;
75454;SDS011;64035;48.358;2.122;2023-02-12T01:30:32;12.95;;;4.50;;
75454;SDS011;64035;48.358;2.122;2023-02-12T01:31:36;10.30;;;4.07;;
75454;SDS011;64035;48.358;2.122;2023-02-12T01:32:40;11.18;;;4.18;;
75454;SDS011;64035;48.358;2.122;2023-02-12T01:33:45;11.82;;;4.32;;
75454;SDS011;64035;48.358;2.122;2023-02-12T01:34:50;12.45;;;3.97;;
75454;SDS011;64035;48.358;2.122;2023-02-12T01:36:58;11.20;;;4.10;;
75454;SDS011;64035;48.358;2.122;2023-02-12T01:38:01;12.38;;;4.28;;
75454;SDS011;64035;48.358;2.122;2023-02-12T01:39:04;13.98;;;4.88;;
75454;SDS011;64035;48.358;2.122;2023-02-12T01:40:08;11.13;;;4.53;;
75454;SDS011;64035;48.358;2.122;2023-02-12T01:41:14;11.65;;;4.18;;
75454;SDS011;64035;48.358;2.122;2023-02-12T01:43:26;10.93;;;4.50;;
75454;SDS011;64035;48.358;2.122;2023-02-12T01:44:29;13.25;;;4.30;;
75454;SDS011;64035;48.358;2.122;2023-02-12T01:45:42;12.23;;;5.00;;
75454;SDS011;64035;48.358;2.122;2023-02-12T01:46:49;11.70;;;4.75;;
75454;SDS011;64035;48.358;2.122;2023-02-12T01:48:02;13.68;;;4.80;;
75454;SDS011;64035;48.358;2.122;2023-02-12T01:49:06;13.00;;;4.63;;
75454;SDS011;64035;48.358;2.122;2023-02-12T01:50:15;12.85;;;4.60;;
75454;SDS011;64035;48.358;2.122;2023-02-12T01:51:21;12.57;;;4.32;;
75454;SDS011;64035;48.358;2.122;2023-02-12T01:52:28;12.23;;;4.40;;
75454;SDS011;64035;48.358;2.122;2023-02-12T01:53:35;11.60;;;4.60;;
75454;SDS011;64035;48.358;2.122;2023-02-12T01:54:43;12.50;;;4.35;;
75454;SDS011;64035;48.358;2.122;2023-02-12T01:55:48;13.75;;;4.68;;
75454;SDS011;64035;48.358;2.122;2023-02-12T01:56:54;11.73;;;4.80;;
75454;SDS011;64035;48.358;2.122;2023-02-12T01:57:58;12.40;;;4.45;;
75454;SDS011;64035;48.358;2.122;2023-02-12T01:59:01;13.15;;;4.75;;
75454;SDS011;64035;48.358;2.122;2023-02-12T02:00:11;12.55;;;4.32;;
75454;SDS011;64035;48.358;2.122;2023-02-12T02:01:19;13.40;;;4.20;;
75454;SDS011;64035;48.358;2.122;2023-02-12T02:02:24;12.75;;;4.13;;
75454;SDS011;64035;48.358;2.122;2023-02-12T02:03:28;11.52;;;4.50;;
75454;SDS011;64035;48.358;2.122;2023-02-12T02:04:32;14.65;;;4.97;;
75454;SDS011;64035;48.358;2.122;2023-02-12T02:05:53;10.43;;;4.03;;
75454;SDS011;64035;48.358;2.122;2023-02-12T02:07:03;11.55;;;4.35;;
75454;SDS011;64035;48.358;2.122;2023-02-12T02:08:08;13.15;;;5.18;;
75454;SDS011;64035;48.358;2.122;2023-02-12T02:09:12;11.68;;;4.18;;
75454;SDS011;64035;48.358;2.122;2023-02-12T02:10:16;11.07;;;4.28;;
75454;SDS011;64035;48.358;2.122;2023-02-12T02:11:19;12.82;;;4.80;;
75454;SDS011;64035;48.358;2.122;2023-02-12T02:12:41;12.57;;;4.20;;
75454;SDS011;64035;48.358;2.122;2023-02-12T02:14:03;11.60;;;4.53;;
75454;SDS011;64035;48.358;2.122;2023-02-12T02:15:25;12.27;;;4.03;;
75454;SDS011;64035;48.358;2.122;2023-02-12T02:16:32;9.98;;;3.83;;
75454;SDS011;64035;48.358;2.122;2023-02-12T02:18:21;10.95;;;3.72;;
75454;SDS011;64035;48.358;2.122;2023-02-12T02:24:39;9.65;;;3.17;;
75454;SDS011;64035;48.358;2.122;2023-02-12T02:27:55;10.60;;;2.97;;
75454;SDS011;64035;48.358;2.122;2023-02-12T02:30:25;9.63;;;2.70;;
75454;SDS011;64035;48.358;2.122;2023-02-12T02:34:28;7.88;;;2.55;;
75454;SDS011;64035;48.358;2.122;2023-02-12T02:35:57;8.75;;;2.75;;
75454;SDS011;64035;48.358;2.122;2023-02-12T02:37:15;6.82;;;2.20;;
75454;SDS011;64035;48.358;2.122;2023-02-12T02:38:28;7.05;;;2.30;;
75454;SDS011;64035;48.358;2.122;2023-02-12T02:42:07;6.57;;;1.98;;
75454;SDS011;64035;48.358;2.122;2023-02-12T02:43:17;8.35;;;2.33;;
75454;SDS011;64035;48.358;2.122;2023-02-12T02:44:27;8.57;;;2.53;;
75454;SDS011;64035;48.358;2.122;2023-02-12T02:45:38;8.70;;;2.72;;
75454;SDS011;64035;48.358;2.122;2023-02-12T02:46:46;8.90;;;2.30;;
75454;SDS011;64035;48.358;2.122;2023-02-12T02:48:59;8.90;;;2.45;;
75454;SDS011;64035;48.358;2.122;2023-02-12T02:50:07;6.75;;;1.85;;
75454;SDS011;64035;48.358;2.122;2023-02-12T02:51:15;6.60;;;2.20;;
75454;SDS011;64035;48.358;2.122;2023-02-12T02:52:25;9.07;;;2.30;;
75454;SDS011;64035;48.358;2.122;2023-02-12T02:53:37;7.28;;;2.42;;
75454;SDS011;64035;48.358;2.122;2023-02-12T02:54:48;6.78;;;2.63;;
75454;SDS011;64035;48.358;2.122;2023-02-12T02:55:56;6.53;;;1.83;;
75454;SDS011;64035;48.358;2.122;2023-02-12T02:57:05;7.18;;;2.60;;
75454;SDS011;64035;48.358;2.122;2023-02-12T02:58:16;6.88;;;2.25;;
75454;SDS011;64035;48.358;2.122;2023-02-12T02:59:26;6.80;;;2.03;;
75454;SDS011;64035;48.358;2.122;2023-02-12T03:00:36;4.47;;;1.55;;
75454;SDS011;64035;48.358;2.122;2023-02-12T03:01:48;6.68;;;1.98;;
75454;SDS011;64035;48.358;2.122;2023-02-12T03:03:01;7.70;;;2.00;;
75454;SDS011;64035;48.358;2.122;2023-02-12T03:04:11;5.53;;;1.90;;
75454;SDS011;64035;48.358;2.122;2023-02-12T03:05:24;5.88;;;1.50;;
75454;SDS011;64035;48.358;2.122;2023-02-12T03:08:23;6.90;;;2.10;;
75454;SDS011;64035;48.358;2.122;2023-02-12T03:09:46;5.55;;;1.85;;
75454;SDS011;64035;48.358;2.122;2023-02-12T03:11:18;4.95;;;1.58;;
75454;SDS011;64035;48.358;2.122;2023-02-12T03:12:40;6.57;;;1.73;;
75454;SDS011;64035;48.358;2.122;2023-02-12T03:13:51;6.78;;;2.05;;
75454;SDS011;64035;48.358;2.122;2023-02-12T03:15:00;4.93;;;1.73;;
75454;SDS011;64035;48.358;2.122;2023-02-12T03:16:14;5.05;;;1.80;;
75454;SDS011;64035;48.358;2.122;2023-02-12T03:17:25;6.28;;;1.55;;
75454;SDS011;64035;48.358;2.122;2023-02-12T03:18:53;5.60;;;1.60;;
75454;SDS011;64035;48.358;2.122;2023-02-12T03:20:00;5.07;;;1.80;;
75454;SDS011;64035;48.358;2.122;2023-02-12T03:21:11;6.18;;;1.60;;
75454;SDS011;64035;48.358;2.122;2023-02-12T03:22:23;6.10;;;1.75;;
75454;SDS011;64035;48.358;2.122;2023-02-12T03:23:34;6.38;;;1.83;;
75454;SDS011;64035;48.358;2.122;2023-02-12T03:24:49;5.93;;;1.67;;
75454;SDS011;64035;48.358;2.122;2023-02-12T03:26:00;5.50;;;1.70;;
75454;SDS011;64035;48.358;2.122;2023-02-12T03:28:40;5.38;;;1.63;;
75454;SDS011;64035;48.358;2.122;2023-02-12T03:29:43;6.45;;;1.80;;
75454;SDS011;64035;48.358;2.122;2023-02-12T03:32:08;5.13;;;1.58;;
75454;SDS011;64035;48.358;2.122;2023-02-12T03:34:59;6.85;;;1.98;;
75454;SDS011;64035;48.358;2.122;2023-02-12T03:37:55;5.40;;;1.42;;
75454;SDS011;64035;48.358;2.122;2023-02-12T03:39:14;5.20;;;1.40;;
75454;SDS011;64035;48.358;2.122;2023-02-12T03:40:28;5.35;;;1.60;;
75454;SDS011;64035;48.358;2.122;2023-02-12T03:41:44;6.63;;;1.90;;
75454;SDS011;64035;48.358;2.122;2023-02-12T03:45:18;5.97;;;1.70;;
75454;SDS011;64035;48.358;2.122;2023-02-12T03:46:40;5.28;;;1.95;;
75454;SDS011;64035;48.358;2.122;2023-02-12T03:48:06;5.40;;;1.42;;
75454;SDS011;64035;48.358;2.122;2023-02-12T03:49:20;6.65;;;1.90;;
75454;SDS011;64035;48.358;2.122;2023-02-12T03:50:35;7.15;;;2.38;;
75454;SDS011;64035;48.358;2.122;2023-02-12T03:51:47;4.65;;;1.60;;
75454;SDS011;64035;48.358;2.122;2023-02-12T03:53:54;5.72;;;1.80;;
75454;SDS011;64035;48.358;2.122;2023-02-12T03:54:58;5.20;;;1.63;;
75454;SDS011;64035;48.358;2.122;2023-02-12T03:56:03;7.28;;;2.20;;
75454;SDS011;64035;48.358;2.122;2023-02-12T03:57:18;8.07;;;2.08;;
75454;SDS011;64035;48.358;2.122;2023-02-12T03:58:24;6.80;;;2.20;;
75454;SDS011;64035;48.358;2.122;2023-02-12T03:59:31;7.18;;;2.22;;
75454;SDS011;64035;48.358;2.122;2023-02-12T04:00:38;7.50;;;2.10;;
75454;SDS011;64035;48.358;2.122;2023-02-12T04:01:41;5.82;;;1.90;;
75454;SDS011;64035;48.358;2.122;2023-02-12T04:02:44;9.32;;;2.75;;
75454;SDS011;64035;48.358;2.122;2023-02-12T04:03:48;7.68;;;2.45;;
75454;SDS011;64035;48.358;2.122;2023-02-12T04:04:51;6.07;;;2.10;;
75454;SDS011;64035;48.358;2.122;2023-02-12T04:05:54;8.05;;;2.15;;
75454;SDS011;64035;48.358;2.122;2023-02-12T04:06:58;6.97;;;2.25;;
75454;SDS011;64035;48.358;2.122;2023-02-12T04:08:02;8.57;;;2.78;;
75454;SDS011;64035;48.358;2.122;2023-02-12T04:09:10;6.97;;;2.28;;
75454;SDS011;64035;48.358;2.122;2023-02-12T04:10:16;7.50;;;2.72;;
75454;SDS011;64035;48.358;2.122;2023-02-12T04:11:24;8.13;;;2.72;;
75454;SDS011;64035;48.358;2.122;2023-02-12T04:17:57;6.40;;;2.22;;
75454;SDS011;64035;48.358;2.122;2023-02-12T04:22:33;6.20;;;1.80;;
75454;SDS011;64035;48.358;2.122;2023-02-12T04:23:55;6.75;;;2.20;;
75454;SDS011;64035;48.358;2.122;2023-02-12T04:29:17;7.97;;;2.58;;
75454;SDS011;64035;48.358;2.122;2023-02-12T04:30:43;7.75;;;2.33;;
75454;SDS011;64035;48.358;2.122;2023-02-12T04:31:55;6.88;;;2.25;;
75454;SDS011;64035;48.358;2.122;2023-02-12T04:33:05;6.43;;;2.30;;
75454;SDS011;64035;48.358;2.122;2023-02-12T04:35:50;6.82;;;2.42;;
75454;SDS011;64035;48.358;2.122;2023-02-12T04:37:03;8.95;;;2.63;;
75454;SDS011;64035;48.358;2.122;2023-02-12T04:38:21;7.78;;;2.30;;
75454;SDS011;64035;48.358;2.122;2023-02-12T04:39:32;6.70;;;2.15;;
75454;SDS011;64035;48.358;2.122;2023-02-12T04:40:38;6.13;;;1.98;;
75454;SDS011;64035;48.358;2.122;2023-02-12T04:41:43;6.80;;;2.33;;
75454;SDS011;64035;48.358;2.122;2023-02-12T04:42:47;6.00;;;2.35;;
75454;SDS011;64035;48.358;2.122;2023-02-12T04:43:51;7.30;;;2.30;;
75454;SDS011;64035;48.358;2.122;2023-02-12T04:44:55;6.30;;;2.13;;
75454;SDS011;64035;48.358;2.122;2023-02-12T04:45:58;7.07;;;2.08;;
75454;SDS011;64035;48.358;2.122;2023-02-12T04:47:01;7.25;;;2.40;;
75454;SDS011;64035;48.358;2.122;2023-02-12T04:48:04;7.63;;;2.63;;
75454;SDS011;64035;48.358;2.122;2023-02-12T04:49:08;7.10;;;2.20;;
75454;SDS011;64035;48.358;2.122;2023-02-12T04:50:16;6.53;;;2.00;;
75454;SDS011;64035;48.358;2.122;2023-02-12T04:51:20;5.97;;;2.17;;
75454;SDS011;64035;48.358;2.122;2023-02-12T04:52:24;6.82;;;2.25;;
75454;SDS011;64035;48.358;2.122;2023-02-12T04:53:26;6.70;;;2.30;;
75454;SDS011;64035;48.358;2.122;2023-02-12T04:54:30;7.53;;;2.25;;
75454;SDS011;64035;48.358;2.122;2023-02-12T04:55:33;7.35;;;2.83;;
75454;SDS011;64035;48.358;2.122;2023-02-12T04:56:37;7.28;;;2.20;;
75454;SDS011;64035;48.358;2.122;2023-02-12T04:57:40;7.70;;;2.25;;
75454;SDS011;64035;48.358;2.122;2023-02-12T04:58:44;6.25;;;2.17;;
75454;SDS011;64035;48.358;2.122;2023-02-12T04:59:47;7.82;;;2.30;;
75454;SDS011;64035;48.358;2.122;2023-02-12T05:00:51;6.32;;;2.10;;
75454;SDS011;64035;48.358;2.122;2023-02-12T05:01:54;6.18;;;2.00;;
75454;SDS011;64035;48.358;2.122;2023-02-12T05:02:57;8.48;;;2.50;;
75454;SDS011;64035;48.358;2.122;2023-02-12T05:04:00;6.50;;;2.63;;
75454;SDS011;64035;48.358;2.122;2023-02-12T05:05:03;5.70;;;1.92;;
75454;SDS011;64035;48.358;2.122;2023-02-12T05:06:07;6.75;;;2.30;;
75454;SDS011;64035;48.358;2.122;2023-02-12T05:07:11;6.10;;;1.90;;
75454;SDS011;64035;48.358;2.122;2023-02-12T05:08:14;6.95;;;2.15;;
75454;SDS011;64035;48.358;2.122;2023-02-12T05:09:18;6.50;;;2.20;;
75454;SDS011;64035;48.358;2.122;2023-02-12T05:10:22;6.82;;;2.13;;
75454;SDS011;64035;48.358;2.122;2023-02-12T05:11:25;6.15;;;1.98;;
75454;SDS011;64035;48.358;2.122;2023-02-12T05:12:29;5.90;;;1.80;;
75454;SDS011;64035;48.358;2.122;2023-02-12T05:13:32;6.35;;;2.38;;
75454;SDS011;64035;48.358;2.122;2023-02-12T05:14:35;6.18;;;2.33;;
75454;SDS011;64035;48.358;2.122;2023-02-12T05:15:38;6.85;;;2.15;;
75454;SDS011;64035;48.358;2.122;2023-02-12T05:16:42;6.28;;;1.95;;
75454;SDS011;64035;48.358;2.122;2023-02-12T05:17:45;6.95;;;2.40;;
75454;SDS011;64035;48.358;2.122;2023-02-12T05:18:49;6.22;;;2.08;;
75454;SDS011;64035;48.358;2.122;2023-02-12T05:19:52;6.63;;;2.15;;
75454;SDS011;64035;48.358;2.122;2023-02-12T05:20:58;8.32;;;2.38;;
75454;SDS011;64035;48.358;2.122;2023-02-12T05:22:03;7.03;;;1.83;;
75454;SDS011;64035;48.358;2.122;2023-02-12T05:23:06;7.45;;;2.15;;
75454;SDS011;64035;48.358;2.122;2023-02-12T05:24:09;5.78;;;1.90;;
75454;SDS011;64035;48.358;2.122;2023-02-12T05:25:12;8.00;;;2.13;;
75454;SDS011;64035;48.358;2.122;2023-02-12T05:26:17;7.78;;;2.38;;
75454;SDS011;64035;48.358;2.122;2023-02-12T05:27:23;7.88;;;2.22;;
75454;SDS011;64035;48.358;2.122;2023-02-12T05:28:27;6.22;;;2.10;;
75454;SDS011;64035;48.358;2.122;2023-02-12T05:29:31;7.75;;;2.55;;
75454;SDS011;64035;48.358;2.122;2023-02-12T05:30:34;6.22;;;2.25;;
75454;SDS011;64035;48.358;2.122;2023-02-12T05:31:37;5.57;;;2.00;;
75454;SDS011;64035;48.358;2.122;2023-02-12T05:32:40;7.35;;;2.50;;
75454;SDS011;64035;48.358;2.122;2023-02-12T05:33:44;6.93;;;2.35;;
75454;SDS011;64035;48.358;2.122;2023-02-12T05:34:48;6.47;;;2.00;;
75454;SDS011;64035;48.358;2.122;2023-02-12T05:35:51;7.28;;;2.38;;
75454;SDS011;64035;48.358;2.122;2023-02-12T05:36:54;7.57;;;2.60;;
75454;SDS011;64035;48.358;2.122;2023-02-12T05:37:57;7.75;;;2.28;;
75454;SDS011;64035;48.358;2.122;2023-02-12T05:39:00;5.80;;;2.10;;
75454;SDS011;64035;48.358;2.122;2023-02-12T05:40:03;8.23;;;2.30;;
75454;SDS011;64035;48.358;2.122;2023-02-12T05:41:09;6.45;;;2.25;;
75454;SDS011;64035;48.358;2.122;2023-02-12T05:42:14;6.55;;;2.05;;
75454;SDS011;64035;48.358;2.122;2023-02-12T05:43:17;9.40;;;2.50;;
75454;SDS011;64035;48.358;2.122;2023-02-12T05:44:20;7.30;;;2.30;;
75454;SDS011;64035;48.358;2.122;2023-02-12T05:45:23;6.13;;;2.22;;
75454;SDS011;64035;48.358;2.122;2023-02-12T05:46:29;7.88;;;2.72;;
75454;SDS011;64035;48.358;2.122;2023-02-12T05:47:33;6.50;;;2.10;;
75454;SDS011;64035;48.358;2.122;2023-02-12T05:48:36;7.22;;;2.45;;
75454;SDS011;64035;48.358;2.122;2023-02-12T05:49:40;7.07;;;2.67;;
75454;SDS011;64035;48.358;2.122;2023-02-12T05:50:44;9.52;;;3.33;;
75454;SDS011;64035;48.358;2.122;2023-02-12T05:51:47;10.00;;;2.83;;
75454;SDS011;64035;48.358;2.122;2023-02-12T05:53:55;7.43;;;3.13;;
75454;SDS011;64035;48.358;2.122;2023-02-12T05:55:01;9.40;;;3.40;;
75454;SDS011;64035;48.358;2.122;2023-02-12T05:56:06;8.90;;;2.97;;
75454;SDS011;64035;48.358;2.122;2023-02-12T05:57:11;8.20;;;3.33;;
75454;SDS011;64035;48.358;2.122;2023-02-12T05:58:14;7.47;;;3.10;;
75454;SDS011;64035;48.358;2.122;2023-02-12T05:59:19;8.40;;;3.05;;
75454;SDS011;64035;48.358;2.122;2023-02-12T06:00:24;8.57;;;3.08;;
75454;SDS011;64035;48.358;2.122;2023-02-12T06:01:32;9.25;;;3.08;;
75454;SDS011;64035;48.358;2.122;2023-02-12T06:02:37;8.10;;;3.20;;
75454;SDS011;64035;48.358;2.122;2023-02-12T06:03:40;8.07;;;2.78;;
75454;SDS011;64035;48.358;2.122;2023-02-12T06:04:43;9.45;;;3.40;;
75454;SDS011;64035;48.358;2.122;2023-02-12T06:05:49;8.77;;;3.00;;
75454;SDS011;64035;48.358;2.122;2023-02-12T06:06:53;7.32;;;2.50;;
75454;SDS011;64035;48.358;2.122;2023-02-12T06:07:57;8.70;;;3.40;;
75454;SDS011;64035;48.358;2.122;2023-02-12T06:09:00;8.57;;;3.20;;
75454;SDS011;64035;48.358;2.122;2023-02-12T06:10:04;8.52;;;3.22;;
75454;SDS011;64035;48.358;2.122;2023-02-12T06:11:09;8.50;;;3.10;;
75454;SDS011;64035;48.358;2.122;2023-02-12T06:12:14;9.35;;;3.60;;
75454;SDS011;64035;48.358;2.122;2023-02-12T06:13:17;7.72;;;2.75;;
75454;SDS011;64035;48.358;2.122;2023-02-12T06:14:20;9.27;;;2.80;;
75454;SDS011;64035;48.358;2.122;2023-02-12T06:15:23;7.78;;;3.17;;
75454;SDS011;64035;48.358;2.122;2023-02-12T06:16:27;8.13;;;2.90;;
75454;SDS011;64035;48.358;2.122;2023-02-12T06:17:30;8.90;;;2.90;;
75454;SDS011;64035;48.358;2.122;2023-02-12T06:18:36;9.25;;;3.00;;
75454;SDS011;64035;48.358;2.122;2023-02-12T06:19:38;6.97;;;2.70;;
75454;SDS011;64035;48.358;2.122;2023-02-12T06:20:42;9.00;;;3.00;;
75454;SDS011;64035;48.358;2.122;2023-02-12T06:21:45;8.55;;;3.08;;
75454;SDS011;64035;48.358;2.122;2023-02-12T06:22:49;7.78;;;2.75;;
75454;SDS011;64035;48.358;2.122;2023-02-12T06:23:52;7.53;;;2.70;;
75454;SDS011;64035;48.358;2.122;2023-02-12T06:24:55;7.03;;;2.60;;
75454;SDS011;64035;48.358;2.122;2023-02-12T06:25:58;7.32;;;2.65;;
75454;SDS011;64035;48.358;2.122;2023-02-12T06:27:01;6.97;;;2.72;;
75454;SDS011;64035;48.358;2.122;2023-02-12T06:28:05;7.72;;;2.88;;
75454;SDS011;64035;48.358;2.122;2023-02-12T06:29:08;7.95;;;2.72;;
75454;SDS011;64035;48.358;2.122;2023-02-12T06:30:12;7.65;;;2.67;;
75454;SDS011;64035;48.358;2.122;2023-02-12T06:32:26;5.80;;;1.98;;
75454;SDS011;64035;48.358;2.122;2023-02-12T06:33:29;7.13;;;2.50;;
75454;SDS011;64035;48.358;2.122;2023-02-12T06:34:32;8.38;;;2.70;;
75454;SDS011;64035;48.358;2.122;2023-02-12T06:35:36;9.02;;;3.28;;
75454;SDS011;64035;48.358;2.122;2023-02-12T06:37:44;6.68;;;2.33;;
75454;SDS011;64035;48.358;2.122;2023-02-12T06:38:47;8.20;;;2.97;;
75454;SDS011;64035;48.358;2.122;2023-02-12T06:39:50;8.40;;;3.03;;
75454;SDS011;64035;48.358;2.122;2023-02-12T06:40:53;8.45;;;3.10;;
75454;SDS011;64035;48.358;2.122;2023-02-12T06:41:56;7.03;;;2.33;;
75454;SDS011;64035;48.358;2.122;2023-02-12T06:42:59;6.85;;;2.42;;
75454;SDS011;64035;48.358;2.122;2023-02-12T06:44:03;8.45;;;2.65;;
75454;SDS011;64035;48.358;2.122;2023-02-12T06:45:07;8.38;;;2.90;;
75454;SDS011;64035;48.358;2.122;2023-02-12T06:46:10;8.23;;;2.72;;
75454;SDS011;64035;48.358;2.122;2023-02-12T06:47:13;8.85;;;2.78;;
75454;SDS011;64035;48.358;2.122;2023-02-12T06:48:16;7.68;;;2.97;;
75454;SDS011;64035;48.358;2.122;2023-02-12T06:49:19;7.47;;;2.25;;
75454;SDS011;64035;48.358;2.122;2023-02-12T06:50:22;7.32;;;2.33;;
75454;SDS011;64035;48.358;2.122;2023-02-12T06:51:26;7.55;;;2.60;;
75454;SDS011;64035;48.358;2.122;2023-02-12T06:52:30;7.60;;;2.47;;
75454;SDS011;64035;48.358;2.122;2023-02-12T06:53:34;8.15;;;2.78;;
75454;SDS011;64035;48.358;2.122;2023-02-12T06:54:37;8.30;;;2.58;;
75454;SDS011;64035;48.358;2.122;2023-02-12T06:55:41;7.43;;;2.40;;
75454;SDS011;64035;48.358;2.122;2023-02-12T06:56:44;8.52;;;2.50;;
75454;SDS011;64035;48.358;2.122;2023-02-12T06:57:47;7.75;;;2.65;;
75454;SDS011;64035;48.358;2.122;2023-02-12T06:58:51;6.07;;;2.15;;
75454;SDS011;64035;48.358;2.122;2023-02-12T06:59:57;8.35;;;2.70;;
75454;SDS011;64035;48.358;2.122;2023-02-12T07:02:15;9.02;;;2.58;;
75454;SDS011;64035;48.358;2.122;2023-02-12T07:03:17;8.85;;;3.08;;
75454;SDS011;64035;48.358;2.122;2023-02-12T07:04:20;8.00;;;2.75;;
75454;SDS011;64035;48.358;2.122;2023-02-12T07:05:23;8.60;;;3.08;;
75454;SDS011;64035;48.358;2.122;2023-02-12T07:06:27;7.47;;;2.58;;
75454;SDS011;64035;48.358;2.122;2023-02-12T07:07:31;10.73;;;3.10;;
75454;SDS011;64035;48.358;2.122;2023-02-12T07:08:35;9.52;;;3.00;;
75454;SDS011;64035;48.358;2.122;2023-02-12T07:09:38;9.18;;;2.95;;
75454;SDS011;64035;48.358;2.122;2023-02-12T07:10:41;8.63;;;2.75;;
75454;SDS011;64035;48.358;2.122;2023-02-12T07:11:44;7.65;;;2.58;;
75454;SDS011;64035;48.358;2.122;2023-02-12T07:12:48;7.72;;;2.10;;
75454;SDS011;64035;48.358;2.122;2023-02-12T07:13:51;7.70;;;2.47;;
75454;SDS011;64035;48.358;2.122;2023-02-12T07:14:54;9.10;;;2.95;;
75454;SDS011;64035;48.358;2.122;2023-02-12T07:15:57;9.15;;;3.30;;
75454;SDS011;64035;48.358;2.122;2023-02-12T07:17:00;8.52;;;2.67;;
75454;SDS011;64035;48.358;2.122;2023-02-12T07:18:05;8.23;;;2.75;;
75454;SDS011;64035;48.358;2.122;2023-02-12T07:19:10;8.00;;;2.90;;
75454;SDS011;64035;48.358;2.122;2023-02-12T07:20:15;7.93;;;2.85;;
75454;SDS011;64035;48.358;2.122;2023-02-12T07:21:19;8.57;;;3.00;;
75454;SDS011;64035;48.358;2.122;2023-02-12T07:22:22;9.15;;;3.20;;
75454;SDS011;64035;48.358;2.122;2023-02-12T07:23:25;7.00;;;2.63;;
75454;SDS011;64035;48.358;2.122;2023-02-12T07:24:29;9.73;;;3.50;;
75454;SDS011;64035;48.358;2.122;2023-02-12T07:25:32;9.07;;;3.20;;
75454;SDS011;64035;48.358;2.122;2023-02-12T07:26:35;10.93;;;3.40;;